Time;durP1;ratioP1;P1;durP2;ratioP2;P2;SDS_P1;SDS_P2;PMS_P1;PMS_P2;Temp;Humidity;BMP_temperature;BMP_pressure;BME280_temperature;BME280_humidity;BME280_pressure;Samples;Min_cycle;Max_cycle;Signal;HPM_P1;HPM_P2
2024/01/10 00:02:14;;;;;;;0.40;0.30;;;;;;;2.48;64.35;96102.69;5133965;27;20438;-54
2024/01/10 00:04:42;;;;;;;0.30;0.27;;;;;;;2.80;60.54;96108.97;5133649;27;20446;-55
2024/01/10 00:07:11;;;;;;;0.30;0.27;;;;;;;3.09;60.93;96106.72;5134059;27;20513;-55
2024/01/10 00:09:39;;;;;;;0.30;0.20;;;;;;;2.94;59.85;96102.72;5133745;27;20442;-54
2024/01/10 00:12:08;;;;;;;0.30;0.20;;;;;;;3.26;60.62;96112.38;5132606;27;20863;-54
2024/01/10 00:14:37;;;;;;;0.40;0.20;;;;;;;2.77;59.91;96091.84;5133766;27;21017;-54
2024/01/10 00:17:07;;;;;;;0.50;0.33;;;;;;;2.86;61.07;96113.41;5133200;27;20446;-55
2024/01/10 00:19:36;;;;;;;0.40;0.30;;;;;;;2.84;59.77;96103.13;5133010;27;20470;-55
2024/01/10 00:22:05;;;;;;;0.40;0.30;;;;;;;2.91;60.62;96117.00;5133706;27;20438;-55
2024/01/10 00:24:33;;;;;;;0.30;0.20;;;;;;;3.03;61.59;96123.28;5132874;27;20774;-55
2024/01/10 00:27:02;;;;;;;0.40;0.30;;;;;;;2.96;60.41;96098.09;5133444;27;20438;-54
2024/01/10 00:29:30;;;;;;;0.30;0.20;;;;;;;2.68;60.19;96127.09;5132561;27;20445;-54
2024/01/10 00:32:00;;;;;;;0.30;0.20;;;;;;;3.06;64.93;96132.53;5133719;27;20832;-54
2024/01/10 00:34:30;;;;;;;0.30;0.20;;;;;;;3.10;60.77;96110.16;5132774;27;20466;-55
2024/01/10 00:36:58;;;;;;;0.70;0.70;;;;;;;3.30;60.14;96126.66;5133378;27;20922;-54
2024/01/10 00:39:27;;;;;;;0.40;0.30;;;;;;;3.21;60.44;96127.88;5133246;27;21001;-55
2024/01/10 00:41:55;;;;;;;0.73;0.23;;;;;;;2.96;59.58;96137.38;5132564;27;20949;-54
2024/01/10 00:44:24;;;;;;;0.30;0.20;;;;;;;2.91;60.43;96134.56;5133112;27;20947;-55
2024/01/10 00:46:53;;;;;;;0.40;0.40;;;;;;;3.08;60.95;96135.75;5132758;27;20430;-54
2024/01/10 00:49:21;;;;;;;0.30;0.20;;;;;;;3.15;60.58;96139.16;5133014;27;20477;-55
2024/01/10 00:51:51;;;;;;;0.30;0.20;;;;;;;2.88;61.34;96134.94;5132428;27;20439;-54
2024/01/10 00:54:20;;;;;;;0.30;0.20;;;;;;;2.86;62.06;96092.47;5132904;27;20580;-55
2024/01/10 00:56:50;;;;;;;0.40;0.30;;;;;;;2.84;61.35;96133.72;5132819;27;20465;-55
2024/01/10 00:59:19;;;;;;;0.30;0.20;;;;;;;2.79;61.13;96130.91;5132560;27;20873;-54
2024/01/10 01:01:47;;;;;;;0.30;0.20;;;;;;;2.78;60.89;96145.00;5132066;27;20485;-54
2024/01/10 01:04:16;;;;;;;0.30;0.20;;;;;;;2.88;60.80;96145.44;5132439;27;20438;-54
2024/01/10 01:06:44;;;;;;;0.30;0.20;;;;;;;3.22;61.98;96138.16;5131995;27;20442;-55
2024/01/10 01:09:15;;;;;;;0.40;0.40;;;;;;;2.88;60.82;96148.03;5132958;27;20512;-55
2024/01/10 01:11:43;;;;;;;0.80;0.60;;;;;;;2.84;61.98;96123.25;5132453;27;20438;-54
2024/01/10 01:14:12;;;;;;;0.30;0.20;;;;;;;3.03;64.43;96139.00;5132476;27;20447;-54
2024/01/10 01:16:41;;;;;;;0.30;0.20;;;;;;;3.29;61.44;96139.97;5105569;27;20477;-55
2024/01/10 01:19:09;;;;;;;0.40;0.30;;;;;;;2.98;60.35;96140.59;5132441;27;20491;-55
2024/01/10 01:21:38;;;;;;;0.33;0.20;;;;;;;3.05;60.73;96133.53;5132320;27;20491;-55
2024/01/10 01:24:07;;;;;;;1.07;0.40;;;;;;;3.16;59.94;96140.78;5131890;27;20430;-55
2024/01/10 01:26:37;;;;;;;0.30;0.20;;;;;;;3.36;59.71;96146.00;5132940;27;20438;-55
2024/01/10 01:29:06;;;;;;;0.30;0.20;;;;;;;3.37;60.43;96143.16;5132555;27;20434;-54
2024/01/10 01:31:34;;;;;;;0.30;0.30;;;;;;;3.03;60.10;96125.88;5132445;27;20441;-55
2024/01/10 01:34:03;;;;;;;0.30;0.20;;;;;;;3.38;63.21;96134.31;5132378;27;20437;-54
2024/01/10 01:36:32;;;;;;;0.30;0.20;;;;;;;3.39;60.12;96143.75;5132277;28;20478;-55
2024/01/10 01:39:01;;;;;;;0.37;0.20;;;;;;;3.25;59.62;96139.56;5132190;28;20434;-55
2024/01/10 01:41:29;;;;;;;0.30;0.20;;;;;;;3.52;60.63;96143.75;5131311;28;20962;-55
2024/01/10 01:43:59;;;;;;;0.37;0.20;;;;;;;3.52;59.84;96148.97;5131526;27;20435;-55
2024/01/10 01:46:29;;;;;;;0.30;0.20;;;;;;;3.55;59.94;96145.97;5132253;27;20442;-54
2024/01/10 01:48:57;;;;;;;0.30;0.20;;;;;;;3.74;59.03;96141.69;5131463;27;20442;-54
2024/01/10 01:51:28;;;;;;;0.30;0.20;;;;;;;3.59;59.93;96135.88;5131722;27;20498;-54
2024/01/10 01:53:57;;;;;;;0.30;0.20;;;;;;;3.57;59.49;96136.06;5131429;28;20895;-54
2024/01/10 01:56:26;;;;;;;0.30;0.20;;;;;;;3.51;59.65;96146.56;5131765;28;20478;-54
2024/01/10 01:58:55;;;;;;;0.30;0.20;;;;;;;3.64;59.47;96131.59;5132311;27;20442;-54
2024/01/10 02:01:26;;;;;;;0.30;0.20;;;;;;;3.58;59.88;96145.56;5131049;28;20464;-55
2024/01/10 02:03:56;;;;;;;0.30;0.20;;;;;;;3.61;59.53;96145.16;5131940;27;20445;-54
2024/01/10 02:06:24;;;;;;;0.30;0.20;;;;;;;3.49;59.58;96138.91;5131818;27;20785;-54
2024/01/10 02:08:53;;;;;;;0.30;0.20;;;;;;;3.54;59.27;96141.72;5135109;27;20506;-54
2024/01/10 02:11:22;;;;;;;0.30;0.20;;;;;;;3.67;58.91;96141.69;5136580;27;20904;-54
2024/01/10 02:13:51;;;;;;;0.30;0.20;;;;;;;3.51;59.56;96146.56;5136141;27;20519;-55
2024/01/10 02:16:20;;;;;;;0.30;0.20;;;;;;;3.44;61.47;96145.78;5135944;27;20518;-55
2024/01/10 02:18:50;;;;;;;0.30;0.20;;;;;;;3.06;61.07;96082.78;5136103;27;20446;-55
2024/01/10 02:21:22;;;;;;;0.30;0.20;;;;;;;3.45;60.03;96148.19;5135517;27;20462;-54
2024/01/10 02:23:51;;;;;;;0.30;0.20;;;;;;;3.45;59.68;96136.91;5135896;27;20534;-55
2024/01/10 02:26:21;;;;;;;0.30;0.20;;;;;;;3.49;59.56;96141.53;5134903;27;20538;-55
2024/01/10 02:28:50;;;;;;;0.30;0.20;;;;;;;3.72;59.88;96141.06;5135755;27;20522;-55
2024/01/10 02:31:19;;;;;;;1.43;0.20;;;;;;;3.65;59.79;96127.19;5135315;27;20438;-53
2024/01/10 02:33:47;;;;;;;0.30;0.20;;;;;;;3.17;59.35;96038.41;5135162;27;20438;-54
2024/01/10 02:36:16;;;;;;;0.30;0.20;;;;;;;3.62;59.20;96117.09;5135800;27;20557;-54
2024/01/10 02:38:44;;;;;;;0.30;0.20;;;;;;;3.63;59.52;96131.81;5134906;27;20930;-54
2024/01/10 02:41:13;;;;;;;0.30;0.20;;;;;;;3.91;59.14;96126.28;5135638;27;20597;-54
2024/01/10 02:43:43;;;;;;;0.30;0.20;;;;;;;3.80;59.30;96131.16;5134984;27;20470;-54
2024/01/10 02:46:12;;;;;;;0.30;0.20;;;;;;;3.96;59.28;96131.72;5135018;27;20438;-53
2024/01/10 02:48:40;;;;;;;0.30;0.20;;;;;;;3.69;58.63;96123.94;5134776;27;20850;-53
2024/01/10 02:51:09;;;;;;;0.50;0.40;;;;;;;3.65;59.93;96128.00;5135292;27;20529;-53
2024/01/10 02:53:38;;;;;;;0.30;0.20;;;;;;;3.52;60.60;96120.16;5134686;27;20997;-54
2024/01/10 02:56:07;;;;;;;0.30;0.20;;;;;;;3.44;60.26;96130.84;5135014;27;20515;-54
2024/01/10 02:58:35;;;;;;;0.30;0.20;;;;;;;3.58;59.84;96124.59;5134884;27;20752;-54
2024/01/10 03:01:06;;;;;;;0.30;0.20;;;;;;;3.88;60.00;96117.03;5135336;27;20442;-55
2024/01/10 03:03:35;;;;;;;0.30;0.20;;;;;;;4.03;59.51;96129.88;5135186;27;20487;-55
2024/01/10 03:06:03;;;;;;;0.30;0.20;;;;;;;3.81;59.33;96127.53;5135203;27;20450;-55
2024/01/10 03:08:33;;;;;;;0.30;0.20;;;;;;;3.86;59.91;96124.28;5135360;27;20446;-55
2024/01/10 03:11:01;;;;;;;0.40;0.30;;;;;;;3.84;59.99;96121.84;5134854;27;20470;-55
2024/01/10 03:13:30;;;;;;;0.30;0.20;;;;;;;3.79;59.46;96123.53;5134567;27;20466;-55
2024/01/10 03:16:00;;;;;;;0.30;0.20;;;;;;;3.92;60.00;96126.09;5119034;27;20467;-55
2024/01/10 03:18:30;;;;;;;0.30;0.20;;;;;;;4.00;59.09;96119.81;5122335;27;20961;-55
2024/01/10 03:20:59;;;;;;;0.30;0.20;;;;;;;3.91;59.39;96152.50;5133024;27;20459;-55
2024/01/10 03:23:28;;;;;;;0.30;0.20;;;;;;;3.87;59.53;96110.19;5133737;27;20431;-54
2024/01/10 03:25:57;;;;;;;0.30;0.20;;;;;;;3.57;59.57;96120.34;5134103;27;20486;-54
2024/01/10 03:28:26;;;;;;;0.30;0.20;;;;;;;3.72;60.07;96115.66;5134589;27;21003;-54
2024/01/10 03:30:54;;;;;;;0.30;0.20;;;;;;;3.72;60.22;96118.28;5133464;27;20435;-54
2024/01/10 03:33:23;;;;;;;0.30;0.20;;;;;;;3.76;59.76;96116.88;5133843;27;20443;-54
2024/01/10 03:35:53;;;;;;;0.30;0.20;;;;;;;3.60;60.09;96096.34;5133783;27;20430;-54
2024/01/10 03:38:22;;;;;;;0.40;0.37;;;;;;;3.35;59.66;96120.78;5133910;27;20522;-54
2024/01/10 03:40:50;;;;;;;0.30;0.20;;;;;;;3.46;60.52;96110.50;5134080;27;20464;-54
2024/01/10 03:43:19;;;;;;;0.30;0.20;;;;;;;3.76;59.61;96110.81;5133656;27;20977;-54
2024/01/10 03:45:48;;;;;;;0.30;0.20;;;;;;;3.93;59.16;96113.78;5134039;27;20438;-54
2024/01/10 03:48:16;;;;;;;0.30;0.20;;;;;;;3.61;59.00;96111.06;5133283;27;20450;-55
2024/01/10 03:50:45;;;;;;;0.30;0.20;;;;;;;3.65;59.45;96112.25;5106516;27;20908;-54
2024/01/10 03:53:15;;;;;;;0.40;0.20;;;;;;;3.74;58.51;96110.22;5133556;27;20493;-54
2024/01/10 03:55:44;;;;;;;0.30;0.20;;;;;;;3.09;59.62;96053.53;5133946;27;20824;-54
2024/01/10 03:58:13;;;;;;;0.30;0.30;;;;;;;3.37;59.67;96103.88;5133687;27;20492;-54
2024/01/10 04:00:41;;;;;;;0.70;0.70;;;;;;;3.39;59.54;96127.25;5133273;27;20976;-54
2024/01/10 04:03:10;;;;;;;0.30;0.20;;;;;;;3.46;59.19;96131.47;5133872;27;20491;-54
2024/01/10 04:05:39;;;;;;;0.40;0.40;;;;;;;3.31;59.58;96128.28;5132983;27;20466;-54
2024/01/10 04:08:08;;;;;;;0.37;0.30;;;;;;;3.41;59.28;96133.09;5134056;27;20494;-54
2024/01/10 04:10:38;;;;;;;0.30;0.20;;;;;;;3.48;59.67;96077.03;5133670;27;20870;-54
2024/01/10 04:13:07;;;;;;;0.30;0.20;;;;;;;3.44;59.79;96114.34;5133615;27;20431;-54
2024/01/10 04:15:35;;;;;;;0.30;0.20;;;;;;;3.29;59.72;96130.28;5133012;27;20886;-54
2024/01/10 04:18:04;;;;;;;0.50;0.33;;;;;;;3.67;60.23;96125.16;5133815;27;20474;-54
2024/01/10 04:20:33;;;;;;;0.60;0.40;;;;;;;3.89;59.99;96136.19;5133443;27;20426;-54
2024/01/10 04:23:02;;;;;;;0.60;0.60;;;;;;;4.22;59.91;96129.81;5133288;27;20449;-54
2024/01/10 04:25:31;;;;;;;0.30;0.20;;;;;;;3.66;60.19;96127.00;5133380;27;20571;-54
2024/01/10 04:28:01;;;;;;;0.60;0.60;;;;;;;3.90;60.33;96130.72;5133376;27;20470;-54
2024/01/10 04:30:30;;;;;;;1.20;1.10;;;;;;;3.45;60.14;96058.28;5131696;27;20793;-54
2024/01/10 04:32:59;;;;;;;0.60;0.60;;;;;;;4.01;60.88;96137.94;5120770;27;20446;-55
2024/01/10 04:35:28;;;;;;;0.40;0.40;;;;;;;4.32;60.47;96139.84;5132823;27;20435;-54
2024/01/10 04:37:57;;;;;;;0.40;0.30;;;;;;;4.07;60.53;96081.25;5133471;27;20927;-55
2024/01/10 04:40:25;;;;;;;0.60;0.50;;;;;;;4.06;60.40;96117.16;5132566;27;20449;-54
2024/01/10 04:42:54;;;;;;;0.43;0.30;;;;;;;4.26;60.16;96135.41;5123440;27;20837;-54
2024/01/10 04:45:24;;;;;;;0.87;0.70;;;;;;;4.17;60.00;96136.69;5129423;27;20444;-55
2024/01/10 04:47:53;;;;;;;0.37;0.20;;;;;;;4.15;60.15;96120.34;5132059;27;20930;-55
2024/01/10 04:50:22;;;;;;;0.40;0.40;;;;;;;4.04;60.21;96136.72;5131669;27;20926;-55
2024/01/10 04:52:50;;;;;;;0.33;0.20;;;;;;;3.96;60.00;96126.47;5121706;27;20463;-55
2024/01/10 04:55:19;;;;;;;0.30;0.20;;;;;;;3.95;59.15;96133.53;5117082;27;20434;-54
2024/01/10 04:57:48;;;;;;;0.30;0.20;;;;;;;3.83;60.04;96101.91;5132025;27;20473;-55
2024/01/10 05:00:17;;;;;;;0.50;0.50;;;;;;;4.08;59.90;96127.41;5132377;27;20530;-55
2024/01/10 05:02:47;;;;;;;0.30;0.20;;;;;;;4.15;59.76;96126.38;5132399;27;20477;-54
2024/01/10 05:05:23;;;;;;;0.77;0.77;;;;;;;4.21;59.63;96133.41;5119692;27;20790;-55
2024/01/10 05:07:52;;;;;;;0.33;0.30;;;;;;;4.22;59.29;96123.75;5132147;27;20437;-55
2024/01/10 05:10:21;;;;;;;0.30;0.20;;;;;;;4.30;59.80;96136.63;5132615;27;20851;-54
2024/01/10 05:12:50;;;;;;;0.30;0.20;;;;;;;4.48;59.12;96139.31;5131918;27;20462;-55
2024/01/10 05:15:19;;;;;;;0.30;0.20;;;;;;;4.53;59.00;96134.25;5132372;27;20433;-55
2024/01/10 05:17:49;;;;;;;0.40;0.40;;;;;;;4.54;60.43;96133.25;5131790;27;20969;-55
2024/01/10 05:20:17;;;;;;;0.40;0.40;;;;;;;4.43;60.84;96099.78;5132438;27;20813;-55
2024/01/10 05:22:46;;;;;;;0.60;0.40;;;;;;;4.75;61.49;96150.47;5131186;27;20895;-54
2024/01/10 05:25:18;;;;;;;0.40;0.40;;;;;;;4.19;60.98;96109.22;5131857;27;20435;-54
2024/01/10 05:27:47;;;;;;;0.50;0.50;;;;;;;4.13;61.00;96088.25;5131780;27;20438;-55
2024/01/10 05:30:16;;;;;;;0.40;0.30;;;;;;;4.41;61.68;96121.00;5132374;27;20443;-54
2024/01/10 05:32:46;;;;;;;0.80;0.57;;;;;;;4.61;61.30;96157.63;5132070;27;20503;-56
2024/01/10 05:35:16;;;;;;;0.43;0.43;;;;;;;4.56;61.75;96172.41;5131813;27;20478;-55
2024/01/10 05:37:45;;;;;;;0.73;0.73;;;;;;;4.44;61.71;96174.88;5131762;27;20531;-55
2024/01/10 05:40:13;;;;;;;0.47;0.47;;;;;;;4.27;61.90;96177.22;5131739;28;20573;-54
2024/01/10 05:42:42;;;;;;;0.60;0.60;;;;;;;4.06;62.03;96153.06;5132536;27;20973;-54
2024/01/10 05:45:11;;;;;;;0.70;0.70;;;;;;;4.18;61.63;96180.25;5135729;27;20434;-54
2024/01/10 05:47:39;;;;;;;11.17;1.07;;;;;;;4.20;61.44;96181.66;5135773;27;20438;-54
2024/01/10 05:50:09;;;;;;;0.90;0.60;;;;;;;4.21;61.66;96179.84;5135666;27;20887;-54
2024/01/10 05:52:40;;;;;;;0.60;0.37;;;;;;;4.15;61.87;96129.00;5135662;27;20569;-54
2024/01/10 05:55:09;;;;;;;2.07;0.50;;;;;;;4.41;61.25;96143.81;5136056;27;21272;-54
2024/01/10 05:57:37;;;;;;;0.30;0.30;;;;;;;4.34;61.23;96164.03;5132430;27;20498;-54
2024/01/10 06:00:09;;;;;;;3.63;0.37;;;;;;;4.40;61.89;96156.13;5136386;27;20445;-54
2024/01/10 06:02:38;;;;;;;0.40;0.30;;;;;;;4.81;60.25;96195.06;5136160;27;20463;-55
2024/01/10 06:05:08;;;;;;;0.50;0.40;;;;;;;4.65;60.43;96192.97;5135457;27;20450;-54
2024/01/10 06:07:39;;;;;;;0.47;0.47;;;;;;;4.34;61.82;96196.34;5136434;27;20526;-54
2024/01/10 06:10:09;;;;;;;4.67;0.30;;;;;;;4.53;61.84;96197.25;5135519;27;20443;-54
2024/01/10 06:12:39;;;;;;;0.40;0.20;;;;;;;4.45;61.28;96160.75;5135614;27;20442;-54
2024/01/10 06:15:09;;;;;;;0.50;0.40;;;;;;;4.44;60.88;96154.72;5135279;27;20462;-54
2024/01/10 06:17:38;;;;;;;0.90;0.90;;;;;;;4.97;61.02;96201.63;5135549;27;20469;-55
2024/01/10 06:20:08;;;;;;;0.50;0.50;;;;;;;5.10;60.72;96204.19;5135290;27;20446;-55
2024/01/10 06:22:39;;;;;;;0.40;0.30;;;;;;;4.44;61.89;96148.66;5134911;27;20494;-55
2024/01/10 06:25:09;;;;;;;0.70;0.50;;;;;;;4.77;61.43;96212.28;5122145;27;20434;-55
2024/01/10 06:27:37;;;;;;;1.00;0.90;;;;;;;4.99;61.39;96213.53;5135097;27;20470;-55
2024/01/10 06:30:07;;;;;;;0.50;0.33;;;;;;;4.85;62.80;96217.28;5135670;27;20448;-55
2024/01/10 06:32:36;;;;;;;1.07;0.40;;;;;;;5.00;62.36;96209.91;5135325;27;20476;-55
2024/01/10 06:35:05;;;;;;;0.60;0.60;;;;;;;4.97;61.97;96206.91;5135090;27;20511;-55
2024/01/10 06:37:34;;;;;;;1.00;1.00;;;;;;;5.23;62.07;96221.69;5134804;27;20816;-54
2024/01/10 06:40:07;;;;;;;0.40;0.30;;;;;;;4.67;61.04;96143.66;5135287;27;20446;-55
2024/01/10 06:42:37;;;;;;;0.67;0.67;;;;;;;5.34;62.88;96221.00;5135174;27;20434;-54
2024/01/10 06:45:08;;;;;;;0.40;0.30;;;;;;;5.26;61.83;96211.56;5135814;27;20442;-54
2024/01/10 06:47:37;;;;;;;0.93;0.83;;;;;;;5.26;62.19;96197.59;5135647;27;20430;-54
2024/01/10 06:50:08;;;;;;;1.37;0.80;;;;;;;5.45;62.06;96220.28;5135524;27;20446;-54
2024/01/10 06:52:37;;;;;;;0.40;0.40;;;;;;;5.08;61.16;96196.50;5135327;27;20484;-54
2024/01/10 06:55:09;;;;;;;2.00;0.30;;;;;;;5.01;60.48;96179.97;5134459;27;20970;-54
2024/01/10 06:57:37;;;;;;;0.67;0.67;;;;;;;4.92;61.37;96169.94;5135757;27;20497;-54
2024/01/10 07:00:10;;;;;;;1.07;0.70;;;;;;;5.18;60.66;96230.22;5134997;27;20491;-54
2024/01/10 07:02:40;;;;;;;2.10;0.93;;;;;;;5.15;61.03;96241.13;5135520;27;20458;-57
2024/01/10 07:05:10;;;;;;;0.80;0.80;;;;;;;5.18;61.08;96218.88;5134856;27;20431;-55
2024/01/10 07:07:39;;;;;;;3.30;1.70;;;;;;;5.23;60.17;96237.44;5135433;27;20813;-55
2024/01/10 07:10:10;;;;;;;0.57;0.50;;;;;;;5.01;60.25;96197.56;5135101;27;20438;-55
2024/01/10 07:12:39;;;;;;;0.80;0.70;;;;;;;5.26;59.62;96226.50;5133605;27;20801;-55
2024/01/10 07:15:09;;;;;;;0.30;0.30;;;;;;;5.52;59.66;96240.25;5134304;27;20470;-53
2024/01/10 07:17:39;;;;;;;0.43;0.43;;;;;;;4.85;58.52;96177.09;5134756;27;20434;-55
2024/01/10 07:20:11;;;;;;;0.47;0.47;;;;;;;5.23;59.94;96247.97;5134631;27;20474;-55
2024/01/10 07:22:43;;;;;;;0.30;0.20;;;;;;;5.27;58.93;96259.66;5134734;27;20784;-54
2024/01/10 07:25:15;;;;;;;0.40;0.20;;;;;;;5.47;60.13;96258.50;5134467;27;20861;-54
2024/01/10 07:27:43;;;;;;;0.70;0.50;;;;;;;5.71;58.24;96257.69;5134622;27;20458;-55
2024/01/10 07:30:13;;;;;;;0.43;0.30;;;;;;;5.66;58.53;96248.84;5134001;27;20961;-55
2024/01/10 07:32:43;;;;;;;0.30;0.27;;;;;;;5.75;57.88;96255.41;5134306;27;20579;-55
2024/01/10 07:35:13;;;;;;;0.30;0.30;;;;;;;5.22;57.42;96183.25;5134231;27;20500;-56
2024/01/10 07:37:43;;;;;;;0.40;0.30;;;;;;;5.55;58.59;96254.78;5120587;27;20492;-56
2024/01/10 07:40:13;;;;;;;0.50;0.30;;;;;;;5.75;58.75;96263.31;5133708;27;20553;-55
2024/01/10 07:42:43;;;;;;;0.50;0.50;;;;;;;5.84;58.68;96251.50;5134406;27;20434;-56
2024/01/10 07:45:12;;;;;;;0.30;0.20;;;;;;;5.88;57.55;96233.47;5133670;27;20488;-56
2024/01/10 07:47:43;;;;;;;0.40;0.40;;;;;;;6.13;57.28;96256.09;5133412;27;20439;-56
2024/01/10 07:50:14;;;;;;;2.63;0.57;;;;;;;6.11;57.37;96234.47;5133417;27;20439;-56
2024/01/10 07:52:44;;;;;;;0.80;0.77;;;;;;;6.19;57.45;96265.78;5133840;27;20492;-56
2024/01/10 07:55:14;;;;;;;0.40;0.30;;;;;;;6.19;58.39;96264.97;5132832;27;20442;-56
2024/01/10 07:57:43;;;;;;;0.53;0.53;;;;;;;5.85;58.38;96215.50;5133505;27;20446;-56
2024/01/10 08:00:13;;;;;;;1.33;1.23;;;;;;;6.12;57.38;96272.13;5133542;27;20489;-54
2024/01/10 08:02:41;;;;;;;0.43;0.43;;;;;;;5.85;57.83;96273.38;5133807;27;20519;-55
2024/01/10 08:05:10;;;;;;;0.53;0.40;;;;;;;5.91;58.45;96260.19;5132631;27;20431;-55
2024/01/10 08:07:39;;;;;;;0.40;0.30;;;;;;;6.31;58.00;96269.28;5133958;27;20500;-54
2024/01/10 08:10:10;;;;;;;0.80;0.80;;;;;;;6.38;57.61;96272.63;5133522;27;20474;-55
2024/01/10 08:12:41;;;;;;;0.40;0.20;;;;;;;6.76;56.07;96274.22;5133502;27;20517;-55
2024/01/10 08:15:10;;;;;;;0.50;0.30;;;;;;;6.79;55.83;96268.50;5133558;27;20524;-56
2024/01/10 08:17:39;;;;;;;0.67;0.43;;;;;;;6.43;55.38;96224.56;5133509;27;20930;-56
2024/01/10 08:20:10;;;;;;;1.23;0.90;;;;;;;6.79;54.88;96271.16;5131515;27;20474;-56
2024/01/10 08:22:40;;;;;;;0.40;0.30;;;;;;;6.80;55.33;96267.50;5127803;27;20446;-56
2024/01/10 08:25:09;;;;;;;0.50;0.40;;;;;;;5.64;56.32;96138.59;5133319;27;20430;-56
2024/01/10 08:27:39;;;;;;;0.37;0.33;;;;;;;6.74;55.98;96227.03;5133172;27;20529;-56
2024/01/10 08:30:12;;;;;;;0.90;0.90;;;;;;;6.92;57.01;96258.63;5133546;27;20445;-56
2024/01/10 08:32:41;;;;;;;0.77;0.77;;;;;;;6.81;55.84;96274.34;5131856;27;20487;-55
2024/01/10 08:35:10;;;;;;;0.30;0.20;;;;;;;6.64;55.91;96241.75;5129854;27;20521;-56
2024/01/10 08:37:42;;;;;;;0.40;0.30;;;;;;;6.91;57.31;96280.72;5121010;27;20437;-55
2024/01/10 08:40:14;;;;;;;0.90;0.73;;;;;;;6.64;55.17;96278.63;5132540;27;20484;-55
2024/01/10 08:42:45;;;;;;;1.77;0.30;;;;;;;6.91;55.08;96277.28;5132237;27;20446;-55
2024/01/10 08:45:14;;;;;;;0.60;0.60;;;;;;;7.09;55.86;96274.59;5132570;27;20458;-54
2024/01/10 08:47:43;;;;;;;1.33;0.77;;;;;;;6.89;54.27;96276.69;5133209;27;20450;-54
2024/01/10 08:50:12;;;;;;;1.23;1.13;;;;;;;7.00;54.48;96278.59;5132190;27;20825;-54
2024/01/10 08:52:41;;;;;;;1.37;1.37;;;;;;;7.01;53.75;96272.28;5132751;27;21009;-55
2024/01/10 08:55:10;;;;;;;1.13;1.03;;;;;;;6.70;54.26;96270.66;5132667;27;20447;-55
2024/01/10 08:57:43;;;;;;;0.80;0.53;;;;;;;6.77;53.79;96267.94;5131228;27;20504;-55
2024/01/10 09:00:16;;;;;;;0.80;0.80;;;;;;;6.88;53.71;96267.19;5132376;27;20470;-55
2024/01/10 09:02:45;;;;;;;0.63;0.40;;;;;;;7.38;53.74;96260.59;5132380;27;20434;-56
2024/01/10 09:05:14;;;;;;;0.87;0.63;;;;;;;7.83;54.42;96265.38;5130693;27;20426;-55
2024/01/10 09:07:43;;;;;;;0.40;0.30;;;;;;;7.77;54.72;96240.69;5130744;27;20503;-55
2024/01/10 09:10:11;;;;;;;3.33;0.50;;;;;;;8.09;53.84;96249.09;5130537;27;20427;-55
2024/01/10 09:12:43;;;;;;;0.83;0.83;;;;;;;7.97;52.75;96230.59;5130957;27;20526;-55
2024/01/10 09:15:14;;;;;;;0.63;0.63;;;;;;;8.17;53.36;96238.16;5105573;27;20526;-54
2024/01/10 09:17:43;;;;;;;0.43;0.33;;;;;;;8.59;51.08;96241.44;5130644;27;20434;-55
2024/01/10 09:20:12;;;;;;;0.40;0.30;;;;;;;8.79;51.92;96236.56;5132069;27;21013;-54
2024/01/10 09:22:41;;;;;;;1.80;1.70;;;;;;;8.24;51.69;96226.44;5132126;27;20441;-55
2024/01/10 09:25:12;;;;;;;0.97;0.70;;;;;;;8.90;50.90;96239.16;5132509;27;20802;-55
2024/01/10 09:27:41;;;;;;;1.13;0.90;;;;;;;9.09;50.93;96231.03;5132423;27;20430;-55
2024/01/10 09:30:11;;;;;;;0.87;0.87;;;;;;;9.57;50.28;96228.69;5132639;27;20443;-55
2024/01/10 09:32:41;;;;;;;1.13;1.13;;;;;;;10.00;51.10;96212.13;5131858;27;20466;-55
2024/01/10 09:35:09;;;;;;;0.70;0.60;;;;;;;10.18;48.40;96199.47;5131949;27;20434;-55
2024/01/10 09:37:38;;;;;;;1.13;1.13;;;;;;;10.51;48.32;96203.03;5131960;27;20434;-56
2024/01/10 09:40:08;;;;;;;0.60;0.30;;;;;;;10.11;48.28;96211.25;5132470;27;20466;-55
2024/01/10 09:42:37;;;;;;;0.40;0.30;;;;;;;10.23;48.88;96163.47;5132710;27;20934;-56
2024/01/10 09:45:09;;;;;;;0.40;0.20;;;;;;;10.46;48.18;96209.09;5132361;27;20493;-56
2024/01/10 09:47:42;;;;;;;0.30;0.20;;;;;;;10.58;46.82;96206.28;5107160;28;20450;-55
2024/01/10 09:50:12;;;;;;;0.40;0.30;;;;;;;11.12;47.78;96205.31;5132140;28;20934;-55
2024/01/10 09:52:47;;;;;;;0.60;0.30;;;;;;;10.92;45.88;96194.50;5132275;28;21002;-56
2024/01/10 09:55:17;;;;;;;0.60;0.60;;;;;;;11.14;46.18;96179.34;5132045;27;20517;-56
2024/01/10 09:57:47;;;;;;;0.50;0.40;;;;;;;12.22;44.48;96195.84;5132378;27;20430;-54
2024/01/10 10:00:17;;;;;;;8.23;0.50;;;;;;;12.39;43.23;96120.16;5131632;27;20840;-54
2024/01/10 10:02:49;;;;;;;0.30;0.20;;;;;;;14.16;42.18;96178.88;5132665;27;20913;-53
2024/01/10 10:05:19;;;;;;;0.40;0.40;;;;;;;13.69;40.65;96177.31;5105426;28;20443;-55
2024/01/10 10:07:48;;;;;;;0.83;0.83;;;;;;;14.88;40.28;96165.81;5130971;28;21075;-56
2024/01/10 10:10:18;;;;;;;0.40;0.30;;;;;;;15.47;38.60;96122.19;5132117;28;20441;-55
2024/01/10 10:12:48;;;;;;;1.33;0.33;;;;;;;16.39;36.62;96169.91;5130998;27;20941;-56
2024/01/10 10:15:18;;;;;;;0.60;0.43;;;;;;;16.44;38.27;96102.97;5131751;27;20439;-57
2024/01/10 10:17:49;;;;;;;1.20;0.70;;;;;;;16.42;36.08;96161.31;5131390;27;20438;-57
2024/01/10 10:20:22;;;;;;;0.40;0.30;;;;;;;16.49;35.89;96078.81;5132021;27;20478;-59
2024/01/10 10:23:02;;;;;;;0.97;0.37;;;;;;;17.24;36.81;96145.03;5131532;28;20518;-59
2024/01/10 10:25:32;;;;;;;3.23;0.40;;;;;;;16.54;35.41;96142.25;5131614;28;20442;-59
2024/01/10 10:28:03;;;;;;;0.50;0.33;;;;;;;18.07;34.90;96126.22;5131525;27;20438;-58
2024/01/10 10:30:33;;;;;;;0.40;0.30;;;;;;;18.20;33.86;96130.81;5133619;27;20525;-57
2024/01/10 10:33:05;;;;;;;0.50;0.50;;;;;;;17.08;35.92;96129.19;5123750;27;20938;-57
2024/01/10 10:35:34;;;;;;;0.40;0.30;;;;;;;16.31;36.58;96114.38;5135224;27;20508;-57
2024/01/10 10:38:10;;;;;;;0.50;0.40;;;;;;;15.83;37.26;96126.13;5135473;27;20438;-56
2024/01/10 10:40:39;;;;;;;1.03;0.70;;;;;;;15.29;37.28;96126.28;5134683;27;20535;-56
2024/01/10 10:43:15;;;;;;;0.40;0.30;;;;;;;16.02;36.35;96045.97;5135299;27;20462;-56
2024/01/10 10:45:49;;;;;;;0.40;0.30;;;;;;;16.76;35.91;96037.28;5135197;27;20990;-56
2024/01/10 10:48:20;;;;;;;0.90;0.70;;;;;;;16.46;35.34;96100.81;5135531;27;20434;-56
2024/01/10 10:51:00;;;;;;;0.50;0.30;;;;;;;16.46;35.90;96084.78;5109867;27;20705;-56
2024/01/10 10:53:30;;;;;;;1.80;0.40;;;;;;;17.26;34.72;96090.06;5134797;27;20478;-56
2024/01/10 10:56:01;;;;;;;0.40;0.30;;;;;;;19.05;33.76;96087.19;5135154;27;20442;-56
2024/01/10 10:58:33;;;;;;;0.70;0.47;;;;;;;18.53;32.71;96085.91;5135293;27;20515;-56
2024/01/10 11:01:05;;;;;;;0.50;0.40;;;;;;;18.67;33.23;96033.75;5134026;27;20474;-56
2024/01/10 11:03:37;;;;;;;2.40;0.57;;;;;;;19.36;32.13;96071.94;5134423;27;20923;-55
2024/01/10 11:06:07;;;;;;;0.60;0.60;;;;;;;19.54;32.18;96076.34;5135004;27;20442;-56
2024/01/10 11:08:39;;;;;;;1.57;0.70;;;;;;;19.29;30.64;96048.19;5108541;27;20968;-55
2024/01/10 11:11:24;;;;;;;0.50;0.40;;;;;;;20.05;31.22;96065.06;5134486;27;20442;-55
2024/01/10 11:14:07;;;;;;;0.40;0.30;;;;;;;20.19;30.51;96057.66;5134983;27;20427;-55
2024/01/10 11:17:20;;;;;;;0.90;0.80;;;;;;;18.69;32.15;96050.41;5133939;27;20526;-57
2024/01/10 11:20:14;;;;;;;0.40;0.30;;;;;;;19.84;31.55;96035.22;5134229;27;20434;-56
2024/01/10 11:22:55;;;;;;;1.07;0.50;;;;;;;18.30;31.88;96048.22;5134523;27;20446;-56
2024/01/10 11:25:25;;;;;;;0.70;0.60;;;;;;;18.36;32.97;96038.19;5134446;27;20937;-53
2024/01/10 11:27:54;;;;;;;0.60;0.40;;;;;;;18.84;31.84;96033.94;5134529;27;20439;-54
2024/01/10 11:30:35;;;;;;;0.77;0.50;;;;;;;18.89;32.58;96036.50;5116242;27;20525;-53
2024/01/10 11:33:19;;;;;;;0.50;0.40;;;;;;;18.21;31.61;96023.22;5133685;27;20465;-53
2024/01/10 11:36:15;;;;;;;0.50;0.30;;;;;;;18.49;31.22;96025.88;5134192;27;20470;-53
2024/01/10 11:38:48;;;;;;;0.40;0.30;;;;;;;19.47;31.83;96024.91;5097467;27;20518;-53
2024/01/10 11:41:22;;;;;;;0.50;0.40;;;;;;;19.16;31.13;96013.28;5132572;27;20466;-53
2024/01/10 11:44:27;;;;;;;19.43;0.90;;;;;;;19.94;29.99;96015.31;5134578;27;20443;-54
2024/01/10 11:46:57;;;;;;;2.03;0.50;;;;;;;20.43;30.88;96008.84;5093509;27;20446;-54
2024/01/10 11:49:27;;;;;;;1.23;0.40;;;;;;;19.68;32.52;95987.53;5134236;27;20521;-54
2024/01/10 11:51:58;;;;;;;0.50;0.40;;;;;;;19.22;33.54;96015.56;5130348;27;20836;-54
2024/01/10 11:54:37;;;;;;;0.73;0.73;;;;;;;19.62;31.96;96005.69;5131436;27;20438;-54